createdAt,value
2023-05-01T00:00:16.228Z,9.745158
2023-05-01T00:01:16.206Z,9.745158
2023-05-01T00:02:16.292Z,9.745158
2023-05-01T00:03:16.259Z,9.745158
2023-05-01T00:04:16.476Z,9.745158
2023-05-01T00:05:16.173Z,9.745158
2023-05-01T00:06:16.214Z,9.745158
2023-05-01T00:07:16.268Z,9.745158
2023-05-01T00:08:16.156Z,9.745158
2023-05-01T00:09:16.139Z,9.745158
2023-05-01T00:10:16.140Z,9.746177
2023-05-01T00:11:16.125Z,9.745758
2023-05-01T00:12:16.143Z,9.746468
2023-05-01T00:13:16.113Z,9.746140
2023-05-01T00:14:16.146Z,9.745850
2023-05-01T00:15:16.102Z,9.745145
2023-05-01T00:16:16.137Z,9.744643
2023-05-01T00:17:16.114Z,9.744643
2023-05-01T00:18:16.201Z,9.744643
2023-05-01T00:19:16.057Z,9.744880
2023-05-01T00:20:16.056Z,9.744036
2023-05-01T00:21:16.043Z,9.743615
2023-05-01T00:22:16.036Z,9.743615
2023-05-01T00:23:16.050Z,9.743615
2023-05-01T00:24:16.013Z,9.744384
2023-05-01T00:25:15.999Z,9.744968
2023-05-01T00:26:17.003Z,9.745617
2023-05-01T00:27:15.997Z,9.745827
2023-05-01T00:28:16.018Z,9.745939
2023-05-01T00:29:15.980Z,9.745899
2023-05-01T00:30:15.964Z,9.746762
2023-05-01T00:31:15.993Z,9.746538
2023-05-01T00:32:16.018Z,9.745784
2023-05-01T00:33:15.972Z,9.745552
2023-05-01T00:34:15.931Z,9.745576
2023-05-01T00:35:15.935Z,9.745781
2023-05-01T00:36:15.919Z,9.745921
2023-05-01T00:37:15.918Z,9.745636
2023-05-01T00:38:15.932Z,9.745556
2023-05-01T00:39:15.896Z,9.745445
2023-05-01T00:40:15.891Z,9.745515
2023-05-01T00:41:15.887Z,9.745643
2023-05-01T00:42:15.879Z,9.745491
2023-05-01T00:43:15.891Z,9.745530
2023-05-01T00:44:15.858Z,9.745462
2023-05-01T00:45:15.857Z,9.745294
2023-05-01T00:46:15.900Z,9.745652
2023-05-01T00:47:15.836Z,9.745736
2023-05-01T00:48:15.863Z,9.745502
2023-05-01T00:49:15.824Z,9.745421
2023-05-01T00:50:15.817Z,9.745663
2023-05-01T00:51:15.804Z,9.745601
2023-05-01T00:52:15.801Z,9.745504
2023-05-01T00:53:15.819Z,9.745485
2023-05-01T00:54:15.798Z,9.745077
2023-05-01T00:55:15.774Z,9.745398
2023-05-01T00:56:15.768Z,9.745408
2023-05-01T00:57:15.758Z,9.745323
2023-05-01T00:58:15.788Z,9.745274
2023-05-01T00:59:15.748Z,9.745317
2023-05-01T01:00:15.733Z,9.745378
2023-05-01T01:01:15.795Z,9.745523
2023-05-01T01:02:15.724Z,9.745548
2023-05-01T01:03:15.770Z,9.745458
2023-05-01T01:04:15.808Z,9.745562
2023-05-01T01:05:15.696Z,9.745513
2023-05-01T01:06:15.763Z,9.745336
2023-05-01T01:07:15.684Z,9.745498
2023-05-01T01:08:15.694Z,9.745589
2023-05-01T01:09:15.664Z,9.745525
2023-05-01T01:10:15.680Z,9.745461
2023-05-01T01:11:15.647Z,9.745469
2023-05-01T01:12:15.678Z,9.745425
2023-05-01T01:13:15.652Z,9.745349
2023-05-01T01:14:15.619Z,9.745342
2023-05-01T01:15:15.631Z,9.745444
2023-05-01T01:16:15.628Z,9.745228
2023-05-01T01:17:15.828Z,9.745370
2023-05-01T01:18:15.660Z,9.745554
2023-05-01T01:19:15.602Z,9.745430
2023-05-01T01:20:15.593Z,9.745248
2023-05-01T01:21:15.606Z,9.745469
2023-05-01T01:22:15.570Z,9.745528
2023-05-01T01:23:15.610Z,9.745580
2023-05-01T01:24:15.563Z,9.745171
2023-05-01T01:25:15.560Z,9.745495
2023-05-01T01:26:15.530Z,9.745217
2023-05-01T01:27:15.525Z,9.745419
2023-05-01T01:28:15.542Z,9.745481
2023-05-01T01:29:15.504Z,9.745489
2023-05-01T01:30:15.496Z,9.745566
2023-05-01T01:31:15.548Z,9.745365
2023-05-01T01:32:15.507Z,9.745178
2023-05-01T01:33:15.502Z,9.745460
2023-05-01T01:34:15.469Z,9.745111
2023-05-01T01:35:15.465Z,9.745257
2023-05-01T01:36:15.462Z,9.745351
2023-05-01T01:37:15.464Z,9.745451
2023-05-01T01:38:15.458Z,9.745324
2023-05-01T01:39:15.426Z,9.746056
2023-05-01T01:40:15.422Z,9.745600
2023-05-01T01:41:15.415Z,9.745610
2023-05-01T01:42:15.412Z,9.745548
2023-05-01T01:43:15.430Z,9.745804
2023-05-01T01:44:15.388Z,9.745612
2023-05-01T01:45:15.387Z,9.745826
2023-05-01T01:46:15.438Z,9.745612
2023-05-01T01:47:15.377Z,9.745359
2023-05-01T01:48:15.413Z,9.745632
2023-05-01T01:49:15.360Z,9.745647
2023-05-01T01:50:15.354Z,9.745519
2023-05-01T01:51:15.337Z,9.745636
2023-05-01T01:52:15.321Z,9.745822
2023-05-01T01:53:15.345Z,9.745609
2023-05-01T01:54:15.321Z,9.745476
2023-05-01T01:55:15.332Z,9.745408
2023-05-01T01:56:15.292Z,9.745543
2023-05-01T01:57:15.288Z,9.745689
2023-05-01T01:58:15.303Z,9.745445
2023-05-01T01:59:15.271Z,9.745442
2023-05-01T02:00:15.268Z,9.745512
2023-05-01T02:01:15.284Z,9.745169
2023-05-01T02:02:15.246Z,9.745670
2023-05-01T02:03:16.321Z,9.745581
2023-05-01T02:04:15.316Z,9.745950
2023-05-01T02:05:15.226Z,9.745788
2023-05-01T02:06:15.242Z,9.745754
2023-05-01T02:07:15.220Z,9.745831
2023-05-01T02:08:15.240Z,9.745607
2023-05-01T02:09:15.196Z,9.745653
2023-05-01T02:10:15.192Z,9.745591
2023-05-01T02:11:15.185Z,9.745946
2023-05-01T02:12:15.177Z,9.745660
2023-05-01T02:13:15.198Z,9.745682
2023-05-01T02:14:15.158Z,9.745863
2023-05-01T02:15:15.233Z,9.745665
2023-05-01T02:16:15.158Z,9.745641
2023-05-01T02:17:15.137Z,9.745757
2023-05-01T02:18:15.167Z,9.745663
2023-05-01T02:19:15.126Z,9.745615
2023-05-01T02:20:15.116Z,9.745436
2023-05-01T02:21:15.111Z,9.745525
2023-05-01T02:22:15.097Z,9.745651
2023-05-01T02:23:16.128Z,9.745683
2023-05-01T02:24:15.087Z,9.745867
2023-05-01T02:25:15.080Z,9.745583
2023-05-01T02:26:15.084Z,9.745631
2023-05-01T02:27:15.072Z,9.745852
2023-05-01T02:28:15.078Z,9.745404
2023-05-01T02:29:15.077Z,9.745708
2023-05-01T02:30:15.052Z,9.745640
2023-05-01T02:31:15.073Z,9.745547
2023-05-01T02:32:15.045Z,9.745197
2023-05-01T02:33:15.020Z,9.745548
2023-05-01T02:34:15.038Z,9.745363
2023-05-01T02:35:15.011Z,9.745433
2023-05-01T02:36:14.997Z,9.745448
2023-05-01T02:37:14.987Z,9.745463
2023-05-01T02:38:14.983Z,9.745559
2023-05-01T02:39:15.003Z,9.745749
2023-05-01T02:40:14.981Z,9.745856
2023-05-01T02:41:14.964Z,9.745020
2023-05-01T02:42:14.948Z,9.745300
2023-05-01T02:43:14.947Z,9.745649
2023-05-01T02:44:14.963Z,9.745748
2023-05-01T02:45:14.928Z,9.745312
2023-05-01T02:46:14.983Z,9.745362
2023-05-01T02:47:14.992Z,9.745322
2023-05-01T02:48:14.954Z,9.744907
2023-05-01T02:49:14.931Z,9.745080
2023-05-01T02:50:14.891Z,9.745327
2023-05-01T02:51:14.894Z,9.745623
2023-05-01T02:52:14.886Z,9.745437
2023-05-01T02:53:14.872Z,9.745341
2023-05-01T02:54:14.895Z,9.745880
2023-05-01T02:55:14.865Z,9.744959
2023-05-01T02:56:14.859Z,9.744720
2023-05-01T02:57:14.842Z,9.745197
2023-05-01T02:58:14.842Z,9.745105
2023-05-01T02:59:14.851Z,9.745466
2023-05-01T03:00:14.832Z,9.745152
2023-05-01T03:01:14.856Z,9.745090
2023-05-01T03:02:14.802Z,9.745499
2023-05-01T03:03:14.809Z,9.745335
2023-05-01T03:04:14.889Z,9.745224
2023-05-01T03:05:14.780Z,9.745405
2023-05-01T03:06:14.793Z,9.745279
2023-05-01T03:07:14.769Z,9.745035
2023-05-01T03:08:14.754Z,9.745198
2023-05-01T03:09:14.788Z,9.745339
2023-05-01T03:10:14.749Z,9.745813
2023-05-01T03:11:14.739Z,9.745522
2023-05-01T03:12:14.730Z,9.745426
2023-05-01T03:13:14.730Z,9.745506
2023-05-01T03:14:14.756Z,9.745413
2023-05-01T03:15:14.731Z,9.745142
2023-05-01T03:16:14.733Z,9.745543
2023-05-01T03:17:14.689Z,9.745534
2023-05-01T03:18:14.688Z,9.745126
2023-05-01T03:19:14.698Z,9.745044
2023-05-01T03:20:14.679Z,9.745437
2023-05-01T03:21:14.665Z,9.745341
2023-05-01T03:22:14.650Z,9.745272
2023-05-01T03:23:14.646Z,9.745127
2023-05-01T03:24:14.665Z,9.744465
2023-05-01T03:25:14.640Z,9.744315
2023-05-01T03:26:14.626Z,9.745204
2023-05-01T03:27:14.614Z,9.745082
2023-05-01T03:28:14.604Z,9.744851
2023-05-01T03:29:14.624Z,9.745164
2023-05-01T03:30:14.590Z,9.745359
2023-05-01T03:31:14.592Z,9.745154
2023-05-01T03:32:14.612Z,9.745293
2023-05-01T03:33:14.626Z,9.745505
2023-05-01T03:34:14.585Z,9.745538
2023-05-01T03:35:14.619Z,9.745286
2023-05-01T03:36:14.552Z,9.745443
2023-05-01T03:37:14.541Z,9.745176
2023-05-01T03:38:14.547Z,9.745371
2023-05-01T03:39:14.558Z,9.745449
2023-05-01T03:40:14.522Z,9.745356
2023-05-01T03:41:14.516Z,9.745417
2023-05-01T03:42:14.516Z,9.745522
2023-05-01T03:43:14.498Z,9.745463
2023-05-01T03:44:14.511Z,9.745272
2023-05-01T03:45:14.486Z,9.745329
2023-05-01T03:46:14.497Z,9.745462
2023-05-01T03:47:14.467Z,9.747199
2023-05-01T03:48:14.452Z,9.747662
2023-05-01T03:49:14.466Z,9.746672
2023-05-01T03:50:14.442Z,9.746106
2023-05-01T03:51:14.423Z,9.745846
2023-05-01T03:52:14.427Z,9.745674
2023-05-01T03:53:14.416Z,9.745514
2023-05-01T03:54:14.431Z,9.745418
2023-05-01T03:55:14.401Z,9.745266
2023-05-01T03:56:14.403Z,9.745393
2023-05-01T03:57:14.439Z,9.745563
2023-05-01T03:58:14.392Z,9.745546
2023-05-01T03:59:14.403Z,9.745725
2023-05-01T04:00:14.363Z,9.745471
2023-05-01T04:01:14.354Z,9.745524
2023-05-01T04:02:14.370Z,9.745426
2023-05-01T04:03:14.426Z,9.745905
2023-05-01T04:04:14.409Z,9.745926
2023-05-01T04:05:14.329Z,9.745975
2023-05-01T04:06:14.350Z,9.745615
2023-05-01T04:07:14.320Z,9.745568
2023-05-01T04:08:14.297Z,9.745410
2023-05-01T04:09:14.328Z,9.745475
2023-05-01T04:10:14.284Z,9.745320
2023-05-01T04:11:14.286Z,9.745316
2023-05-01T04:12:14.272Z,9.745230
2023-05-01T04:13:14.265Z,9.745331
2023-05-01T04:14:14.282Z,9.745601
2023-05-01T04:15:15.553Z,9.745543
2023-05-01T04:16:15.319Z,9.745445
2023-05-01T04:17:14.237Z,9.745202
2023-05-01T04:18:14.324Z,9.745296
2023-05-01T04:19:14.396Z,9.745263
2023-05-01T04:20:14.216Z,9.745449
2023-05-01T04:21:14.233Z,9.745404
2023-05-01T04:22:14.190Z,9.745251
2023-05-01T04:23:14.179Z,9.745482
2023-05-01T04:24:14.216Z,9.745461
2023-05-01T04:25:14.193Z,9.745479
2023-05-01T04:26:14.167Z,9.745380
2023-05-01T04:27:14.154Z,9.745305
2023-05-01T04:28:14.134Z,9.745223
2023-05-01T04:29:14.145Z,9.745176
2023-05-01T04:30:14.161Z,9.744992
2023-05-01T04:31:14.120Z,9.745387
2023-05-01T04:32:14.117Z,9.745467
2023-05-01T04:33:14.103Z,9.745379
2023-05-01T04:34:14.094Z,9.745431
2023-05-01T04:35:14.112Z,9.745486
2023-05-01T04:36:14.073Z,9.745411
2023-05-01T04:37:14.066Z,9.745370
2023-05-01T04:38:14.059Z,9.745515
2023-05-01T04:39:14.050Z,9.745501
2023-05-01T04:40:14.064Z,9.745633
2023-05-01T04:41:14.031Z,9.745556
2023-05-01T04:42:14.032Z,9.745216
2023-05-01T04:43:14.015Z,9.745415
2023-05-01T04:44:14.012Z,9.745545
2023-05-01T04:45:14.045Z,9.745477
2023-05-01T04:46:14.023Z,9.745601
2023-05-01T04:47:13.991Z,9.745611
2023-05-01T04:48:13.993Z,9.745681
2023-05-01T04:49:13.977Z,9.745586
2023-05-01T04:50:13.991Z,9.745394
2023-05-01T04:51:13.957Z,9.745574
2023-05-01T04:52:13.949Z,9.745677
2023-05-01T04:53:13.934Z,9.745560
2023-05-01T04:54:13.926Z,9.745468
2023-05-01T04:55:13.954Z,9.745662
2023-05-01T04:56:13.933Z,9.745568
2023-05-01T04:57:13.914Z,9.745627
2023-05-01T04:58:13.905Z,9.745747
2023-05-01T04:59:13.891Z,9.745520
2023-05-01T05:00:13.917Z,9.745524
2023-05-01T05:01:13.901Z,9.745549
2023-05-01T05:02:13.918Z,9.745661
2023-05-01T05:03:13.921Z,9.745434
2023-05-01T05:04:13.883Z,9.745461
2023-05-01T05:05:13.877Z,9.745359
2023-05-01T05:06:13.877Z,9.745172
2023-05-01T05:07:13.835Z,9.745585
2023-05-01T05:08:13.821Z,9.745257
2023-05-01T05:09:15.377Z,9.745420
2023-05-01T05:10:13.829Z,9.745319
2023-05-01T05:11:13.815Z,9.745453
2023-05-01T05:12:13.788Z,9.745492
2023-05-01T05:13:13.798Z,9.745542
2023-05-01T05:14:13.782Z,9.745561
2023-05-01T05:15:13.799Z,9.745610
2023-05-01T05:16:13.819Z,9.745574
2023-05-01T05:17:13.752Z,9.745390
2023-05-01T05:18:13.781Z,9.745514
2023-05-01T05:19:13.740Z,9.745474
2023-05-01T05:20:13.757Z,9.745363
2023-05-01T05:21:13.721Z,9.745478
2023-05-01T05:22:13.708Z,9.745457
2023-05-01T05:23:13.707Z,9.745392
2023-05-01T05:24:13.694Z,9.745731
2023-05-01T05:25:13.731Z,9.745914
2023-05-01T05:26:13.701Z,9.745777
2023-05-01T05:27:13.725Z,9.745535
2023-05-01T05:28:13.659Z,9.745319
2023-05-01T05:29:13.653Z,9.745043
2023-05-01T05:30:13.669Z,9.745287
2023-05-01T05:31:13.647Z,9.745455
2023-05-01T05:32:13.685Z,9.745398
2023-05-01T05:33:13.652Z,9.745240
2023-05-01T05:34:13.622Z,9.745409
2023-05-01T05:35:13.643Z,9.745388
2023-05-01T05:36:13.614Z,9.745405
2023-05-01T05:37:13.587Z,9.745360
2023-05-01T05:38:13.590Z,9.745350
2023-05-01T05:39:13.579Z,9.745448
2023-05-01T05:40:13.618Z,9.745453
2023-05-01T05:41:13.565Z,9.745508
2023-05-01T05:42:13.551Z,9.745642
2023-05-01T05:43:13.551Z,9.745110
2023-05-01T05:44:13.543Z,9.745592
2023-05-01T05:45:13.553Z,9.745744
2023-05-01T05:46:13.534Z,9.745946
2023-05-01T05:47:13.519Z,9.745659
2023-05-01T05:48:13.598Z,9.745645
2023-05-01T05:49:13.510Z,9.745163
2023-05-01T05:50:13.532Z,9.745498
2023-05-01T05:51:13.497Z,9.745721
2023-05-01T05:52:13.481Z,9.745441
2023-05-01T05:53:13.568Z,9.745353
2023-05-01T05:54:13.473Z,9.745566
2023-05-01T05:55:13.482Z,9.745251
2023-05-01T05:56:13.461Z,9.745411
2023-05-01T05:57:13.445Z,9.745461
2023-05-01T05:58:13.433Z,9.745450
2023-05-01T05:59:14.817Z,9.745415
2023-05-01T06:00:13.440Z,9.745534
2023-05-01T06:01:13.413Z,9.745462
2023-05-01T06:02:13.438Z,9.745432
2023-05-01T06:03:13.580Z,9.745242
2023-05-01T06:04:13.394Z,9.745337
2023-05-01T06:05:13.472Z,9.745466
2023-05-01T06:06:13.437Z,9.745477
2023-05-01T06:07:13.358Z,9.745264
2023-05-01T06:08:13.365Z,9.745099
2023-05-01T06:09:13.341Z,9.745442
2023-05-01T06:10:13.360Z,9.745451
2023-05-01T06:11:13.332Z,9.745149
2023-05-01T06:12:13.327Z,9.745491
2023-05-01T06:13:14.718Z,9.745708
2023-05-01T06:14:13.303Z,9.745415
2023-05-01T06:15:13.329Z,9.745167
2023-05-01T06:16:13.397Z,9.745115
2023-05-01T06:17:13.283Z,9.745430
2023-05-01T06:18:13.372Z,9.745521
2023-05-01T06:19:13.262Z,9.745581
2023-05-01T06:20:13.294Z,9.745693
2023-05-01T06:21:13.255Z,9.745627
2023-05-01T06:22:13.236Z,9.745636
2023-05-01T06:23:13.224Z,9.745588
2023-05-01T06:24:13.230Z,9.745524
2023-05-01T06:25:13.241Z,9.745521
2023-05-01T06:26:13.219Z,9.745622
2023-05-01T06:27:13.202Z,9.745687
2023-05-01T06:28:13.187Z,9.745667
2023-05-01T06:29:13.185Z,9.745596
2023-05-01T06:30:13.196Z,9.745580
2023-05-01T06:31:13.214Z,9.745596
2023-05-01T06:32:13.155Z,9.745595
2023-05-01T06:33:13.194Z,9.745437
2023-05-01T06:34:13.147Z,9.745458
2023-05-01T06:35:13.165Z,9.745458
2023-05-01T06:36:13.125Z,9.745464
2023-05-01T06:37:13.127Z,9.745482
2023-05-01T06:38:13.104Z,9.745690
2023-05-01T06:39:13.094Z,9.745624
2023-05-01T06:40:13.125Z,9.745587
2023-05-01T06:41:13.093Z,9.745605
2023-05-01T06:42:13.077Z,9.745734
2023-05-01T06:43:13.069Z,9.745639
2023-05-01T06:44:13.062Z,9.745561
2023-05-01T06:45:13.100Z,9.745556
2023-05-01T06:46:13.107Z,9.745305
2023-05-01T06:47:13.115Z,9.745358
2023-05-01T06:48:13.093Z,9.745563
2023-05-01T06:49:13.014Z,9.745667
2023-05-01T06:50:13.045Z,9.745537
2023-05-01T06:51:13.020Z,9.745507
2023-05-01T06:52:12.994Z,9.745306
2023-05-01T06:53:12.981Z,9.745264
2023-05-01T06:54:12.990Z,9.745403
2023-05-01T06:55:13.155Z,9.745360
2023-05-01T06:56:12.979Z,9.745320
2023-05-01T06:57:12.964Z,9.745426
2023-05-01T06:58:23.443Z,9.745714
2023-05-01T06:59:14.950Z,9.745667
2023-05-01T07:00:12.945Z,9.745656
2023-05-01T07:01:13.016Z,9.745217
2023-05-01T07:02:12.965Z,9.745485
2023-05-01T07:03:12.972Z,9.745514
2023-05-01T07:04:12.921Z,9.745399
2023-05-01T07:05:12.909Z,9.745506
2023-05-01T07:06:12.947Z,9.745502
2023-05-01T07:07:12.889Z,9.745437
2023-05-01T07:08:13.723Z,9.745421
2023-05-01T07:09:12.868Z,9.745481
2023-05-01T07:10:12.865Z,9.745496
2023-05-01T07:11:12.877Z,9.745443
2023-05-01T07:12:12.842Z,9.745545
2023-05-01T07:13:12.840Z,9.745596
2023-05-01T07:14:12.837Z,9.745406
2023-05-01T07:15:12.827Z,9.745442
2023-05-01T07:16:12.862Z,9.745599
2023-05-01T07:17:12.808Z,9.745434
2023-05-01T07:18:12.834Z,9.745461
2023-05-01T07:19:12.787Z,9.745473
2023-05-01T07:20:12.787Z,9.745696
2023-05-01T07:21:12.815Z,9.745587
2023-05-01T07:22:12.767Z,9.745636
2023-05-01T07:23:12.753Z,9.745750
2023-05-01T07:24:12.745Z,9.745737
2023-05-01T07:25:12.751Z,9.745775
2023-05-01T07:26:12.757Z,9.745792
2023-05-01T07:27:12.721Z,9.745712
2023-05-01T07:28:12.728Z,9.745628
2023-05-01T07:29:12.713Z,9.745708
2023-05-01T07:30:12.713Z,9.745730
2023-05-01T07:31:12.725Z,9.745750
2023-05-01T07:32:12.727Z,9.745816
2023-05-01T07:33:12.739Z,9.745707
2023-05-01T07:34:12.671Z,9.745779
2023-05-01T07:35:12.672Z,9.745564
2023-05-01T07:36:12.692Z,9.745664
2023-05-01T07:37:12.646Z,9.745790
2023-05-01T07:38:12.636Z,9.745618
2023-05-01T07:39:12.635Z,9.745559
2023-05-01T07:40:12.622Z,9.745689
2023-05-01T07:41:12.638Z,9.745720
2023-05-01T07:42:12.613Z,9.745681
2023-05-01T07:43:12.600Z,9.745672
2023-05-01T07:44:12.598Z,9.745688
2023-05-01T07:45:12.588Z,9.745547
2023-05-01T07:46:12.648Z,9.745486
2023-05-01T07:47:12.580Z,9.745549
2023-05-01T07:48:12.598Z,9.745608
2023-05-01T07:49:12.567Z,9.745645
2023-05-01T07:50:12.552Z,9.745709
2023-05-01T07:51:12.563Z,9.745409
2023-05-01T07:52:12.551Z,9.745714
2023-05-01T07:53:12.524Z,9.745731
2023-05-01T07:54:12.523Z,9.745620
2023-05-01T07:55:12.514Z,9.745634
2023-05-01T07:56:12.529Z,9.745755
2023-05-01T07:57:12.523Z,9.745636
2023-05-01T07:58:12.492Z,9.745560
2023-05-01T07:59:13.486Z,9.745422
2023-05-01T08:00:12.488Z,9.745598
2023-05-01T08:01:12.495Z,9.745585
2023-05-01T08:02:12.502Z,9.745990
2023-05-01T08:03:12.592Z,9.745901
2023-05-01T08:04:12.602Z,9.745690
2023-05-01T08:05:12.445Z,9.745720
2023-05-01T08:06:12.540Z,9.745542
2023-05-01T08:07:12.443Z,9.745918
2023-05-01T08:08:12.421Z,9.745908
2023-05-01T08:09:12.414Z,9.745823
2023-05-01T08:10:12.411Z,9.745679
2023-05-01T08:11:12.418Z,9.745615
2023-05-01T08:12:12.393Z,9.745724
2023-05-01T08:13:12.385Z,9.745580
2023-05-01T08:14:12.371Z,9.745695
2023-05-01T08:15:12.381Z,9.745801
2023-05-01T08:16:12.515Z,9.745822
2023-05-01T08:17:12.358Z,9.745739
2023-05-01T08:18:12.363Z,9.745719
2023-05-01T08:19:12.341Z,9.745649
2023-05-01T08:20:12.330Z,9.745775
2023-05-01T08:21:12.341Z,9.745636
2023-05-01T08:22:12.309Z,9.745532
2023-05-01T08:23:12.308Z,9.745480
2023-05-01T08:24:12.297Z,9.745644
2023-05-01T08:25:12.286Z,9.745667
2023-05-01T08:26:12.309Z,9.745534
2023-05-01T08:27:12.271Z,9.745694
2023-05-01T08:28:12.258Z,9.745619
2023-05-01T08:29:12.249Z,9.745460
2023-05-01T08:30:12.248Z,9.745668
2023-05-01T08:31:12.336Z,9.745713
2023-05-01T08:32:12.227Z,9.745634
2023-05-01T08:33:12.253Z,9.745615
2023-05-01T08:34:12.215Z,9.745340
2023-05-01T08:35:12.215Z,9.745259
2023-05-01T08:36:12.227Z,9.745294
2023-05-01T08:37:12.207Z,9.745387
2023-05-01T08:38:12.189Z,9.745609
2023-05-01T08:39:12.177Z,9.745559
2023-05-01T08:40:12.178Z,9.745587
2023-05-01T08:41:12.178Z,9.745646
2023-05-01T08:42:13.156Z,9.745596
2023-05-01T08:43:12.153Z,9.745748
2023-05-01T08:44:12.137Z,9.745433
2023-05-01T08:45:12.141Z,9.745790
2023-05-01T08:46:12.342Z,9.745572
2023-05-01T08:47:12.248Z,9.745679
2023-05-01T08:48:12.164Z,9.746109
2023-05-01T08:49:12.101Z,9.745625
2023-05-01T08:50:12.156Z,9.745868
2023-05-01T08:51:12.138Z,9.745712
2023-05-01T08:52:12.100Z,9.745669
2023-05-01T08:53:12.073Z,9.745680
2023-05-01T08:54:12.148Z,9.745460
2023-05-01T08:55:12.048Z,9.745550
2023-05-01T08:56:12.069Z,9.745531
2023-05-01T08:57:12.031Z,9.745620
2023-05-01T08:58:12.033Z,9.745841
2023-05-01T08:59:12.018Z,9.745832
2023-05-01T09:00:12.015Z,9.745649
2023-05-01T09:01:12.056Z,9.745753
2023-05-01T09:02:12.236Z,9.745495
2023-05-01T09:03:12.107Z,9.745646
2023-05-01T09:04:12.132Z,9.745649
2023-05-01T09:05:11.980Z,9.745565
2023-05-01T09:06:12.051Z,9.745636
2023-05-01T09:07:11.966Z,9.746024
2023-05-01T09:08:11.960Z,9.745657
2023-05-01T09:09:11.949Z,9.745663
2023-05-01T09:10:11.939Z,9.745630
2023-05-01T09:11:11.955Z,9.745686
2023-05-01T09:12:11.962Z,9.745711
2023-05-01T09:13:11.922Z,9.745617
2023-05-01T09:14:11.908Z,9.745580
2023-05-01T09:15:11.906Z,9.745537
2023-05-01T09:16:11.979Z,9.745525
2023-05-01T09:17:11.879Z,9.745565
2023-05-01T09:18:11.912Z,9.745613
2023-05-01T09:19:11.872Z,9.745726
2023-05-01T09:20:11.872Z,9.745695
2023-05-01T09:21:11.882Z,9.745697
2023-05-01T09:22:11.846Z,9.745803
2023-05-01T09:23:11.839Z,9.745903
2023-05-01T09:24:11.832Z,9.745923
2023-05-01T09:25:11.830Z,9.745661
2023-05-01T09:26:11.859Z,9.745543
2023-05-01T09:27:11.812Z,9.745625
2023-05-01T09:28:11.821Z,9.745617
2023-05-01T09:29:11.813Z,9.745868
2023-05-01T09:30:11.799Z,9.746023
2023-05-01T09:31:11.812Z,9.745930
2023-05-01T09:32:11.876Z,9.745918
2023-05-01T09:33:11.941Z,9.745644
2023-05-01T09:34:11.762Z,9.745580
2023-05-01T09:35:11.762Z,9.745597
2023-05-01T09:36:11.751Z,9.745560
2023-05-01T09:37:11.773Z,9.745577
2023-05-01T09:38:11.734Z,9.745801
2023-05-01T09:39:11.733Z,9.745782
2023-05-01T09:40:11.724Z,9.745786
2023-05-01T09:41:11.716Z,9.745581
2023-05-01T09:42:11.727Z,9.745682
2023-05-01T09:43:11.969Z,9.745648
2023-05-01T09:44:12.686Z,9.745691
2023-05-01T09:45:11.676Z,9.745532
2023-05-01T09:46:11.738Z,9.745696
2023-05-01T09:47:11.696Z,9.745759
2023-05-01T09:48:11.922Z,9.745747
2023-05-01T09:49:11.649Z,9.745841
2023-05-01T09:50:11.655Z,9.745767
2023-05-01T09:51:11.637Z,9.745638
2023-05-01T09:52:11.657Z,9.745663
2023-05-01T09:53:11.648Z,9.745728
2023-05-01T09:54:11.613Z,9.745819
2023-05-01T09:55:11.624Z,9.745715
2023-05-01T09:56:11.597Z,9.745543
2023-05-01T09:57:11.619Z,9.745610
2023-05-01T09:58:11.582Z,9.745606
2023-05-01T09:59:11.578Z,9.745632
2023-05-01T10:00:11.571Z,9.745708
2023-05-01T10:01:11.616Z,9.745663
2023-05-01T10:02:11.636Z,9.745629
2023-05-01T10:03:11.720Z,9.745586
2023-05-01T10:04:11.599Z,9.745687
2023-05-01T10:05:11.532Z,9.745775
2023-05-01T10:06:11.581Z,9.745623
2023-05-01T10:07:11.540Z,9.745739
2023-05-01T10:08:11.535Z,9.745644
2023-05-01T10:09:11.500Z,9.745951
2023-05-01T10:10:11.489Z,9.745829
2023-05-01T10:11:11.505Z,9.745873
2023-05-01T10:12:11.502Z,9.746305
2023-05-01T10:13:11.463Z,9.745910
2023-05-01T10:14:11.470Z,9.745670
2023-05-01T10:15:23.914Z,9.745548
2023-05-01T10:16:13.482Z,9.745655
2023-05-01T10:17:11.632Z,9.745805
2023-05-01T10:18:11.479Z,9.745777
2023-05-01T10:19:11.425Z,9.745568
2023-05-01T10:20:11.414Z,9.745671
2023-05-01T10:21:11.408Z,9.745670
2023-05-01T10:22:11.432Z,9.745612
2023-05-01T10:23:11.391Z,9.745623
2023-05-01T10:24:11.416Z,9.745494
2023-05-01T10:25:11.374Z,9.745484
2023-05-01T10:26:11.366Z,9.745483
2023-05-01T10:27:11.382Z,9.745287
2023-05-01T10:28:11.358Z,9.745459
2023-05-01T10:29:11.341Z,9.745415
2023-05-01T10:30:11.402Z,9.745258
2023-05-01T10:31:11.383Z,9.745485
2023-05-01T10:32:11.350Z,9.745610
2023-05-01T10:33:11.396Z,9.745731
2023-05-01T10:34:11.322Z,9.745580
2023-05-01T10:35:11.290Z,9.745631
2023-05-01T10:36:11.286Z,9.745638
2023-05-01T10:37:11.328Z,9.745591
2023-05-01T10:38:11.269Z,9.745441
2023-05-01T10:39:11.254Z,9.745365
2023-05-01T10:40:11.248Z,9.745357
2023-05-01T10:41:11.243Z,9.745445
2023-05-01T10:42:11.611Z,9.745318
2023-05-01T10:43:11.231Z,9.745334
2023-05-01T10:44:11.219Z,9.745316
2023-05-01T10:45:11.237Z,9.745522
2023-05-01T10:46:11.224Z,9.745958
2023-05-01T10:47:11.222Z,9.745958
2023-05-01T10:48:11.258Z,9.745555
2023-05-01T10:49:11.189Z,9.745084
2023-05-01T10:50:11.191Z,9.745573
2023-05-01T10:51:11.194Z,9.745471
2023-05-01T10:52:11.184Z,9.745715
2023-05-01T10:53:11.159Z,9.745697
2023-05-01T10:54:11.148Z,9.745378
2023-05-01T10:55:11.139Z,9.745510
2023-05-01T10:56:11.131Z,9.745218
2023-05-01T10:57:11.145Z,9.745596
2023-05-01T10:58:11.109Z,9.745765
2023-05-01T10:59:11.105Z,9.745366
2023-05-01T11:00:11.100Z,9.745115
2023-05-01T11:01:11.088Z,9.745341
2023-05-01T11:02:11.141Z,9.745275
2023-05-01T11:03:11.104Z,9.745251
2023-05-01T11:04:11.065Z,9.745028
2023-05-01T11:05:11.109Z,9.745362
2023-05-01T11:06:11.187Z,9.745158
2023-05-01T11:07:11.330Z,9.745589
2023-05-01T11:08:11.032Z,9.745971
2023-05-01T11:09:11.030Z,9.746179
2023-05-01T11:10:11.026Z,9.745636
2023-05-01T11:11:11.016Z,9.745946
2023-05-01T11:12:11.044Z,9.746184
2023-05-01T11:13:11.019Z,9.745535
2023-05-01T11:14:10.996Z,9.745390
2023-05-01T11:15:10.979Z,9.745441
2023-05-01T11:16:10.999Z,9.745646
2023-05-01T11:17:11.006Z,9.745769
2023-05-01T11:18:11.052Z,9.745689
2023-05-01T11:19:10.956Z,9.745580
2023-05-01T11:20:10.971Z,9.745543
2023-05-01T11:21:10.934Z,9.745581
2023-05-01T11:22:10.961Z,9.745667
2023-05-01T11:23:10.924Z,9.745850
2023-05-01T11:24:10.926Z,9.745728
2023-05-01T11:25:10.904Z,9.745642
2023-05-01T11:26:10.901Z,9.745593
2023-05-01T11:27:10.917Z,9.745987
2023-05-01T11:28:10.889Z,9.745644
2023-05-01T11:29:10.886Z,9.745531
2023-05-01T11:30:10.873Z,9.745570
2023-05-01T11:31:10.862Z,9.745636
2023-05-01T11:32:10.955Z,9.745670
2023-05-01T11:33:11.226Z,9.745608
2023-05-01T11:34:10.844Z,9.745622
2023-05-01T11:35:10.832Z,9.745616
2023-05-01T11:36:10.831Z,9.746159
2023-05-01T11:37:10.843Z,9.745350
2023-05-01T11:38:10.809Z,9.745584
2023-05-01T11:39:10.804Z,9.745498
2023-05-01T11:40:10.837Z,9.745661
2023-05-01T11:41:10.784Z,9.745542
2023-05-01T11:42:10.900Z,9.745587
2023-05-01T11:43:10.768Z,9.745673
2023-05-01T11:44:10.768Z,9.745182